createdAt,value
2019-05-07T00:00:34.914Z,76.49
2019-05-07T00:03:03.452Z,78.95
2019-05-07T00:05:33.199Z,79.76
2019-05-07T00:08:03.024Z,80.25
2019-05-07T00:10:33.193Z,80.35
2019-05-07T00:13:02.349Z,80.40
2019-05-07T00:15:32.784Z,80.21
2019-05-07T00:18:03.253Z,81.11
2019-05-07T00:20:32.699Z,81.38
2019-05-07T00:23:02.959Z,80.42
2019-05-07T00:25:32.797Z,80.57
2019-05-07T00:28:02.749Z,80.57
2019-05-07T00:30:33.216Z,82.06
2019-05-07T00:33:02.781Z,81.92
2019-05-07T00:35:38.966Z,81.42
2019-05-07T00:38:09.021Z,82.26
2019-05-07T00:40:55.355Z,81.77
2019-05-07T00:43:25.420Z,81.60
2019-05-07T00:45:56.944Z,81.62
2019-05-07T00:48:25.634Z,80.87
2019-05-07T00:50:55.705Z,81.66
2019-05-07T00:53:24.206Z,82.23
2019-05-07T00:55:52.830Z,82.26
2019-05-07T00:58:26.306Z,82.85
2019-05-07T01:00:53.168Z,82.78
2019-05-07T01:03:22.377Z,82.45
2019-05-07T01:05:52.758Z,82.10
2019-05-07T01:08:22.553Z,81.98
2019-05-07T01:10:52.892Z,81.98
2019-05-07T01:13:23.340Z,82.63
2019-05-07T01:15:53.197Z,82.00
2019-05-07T01:18:23.344Z,82.08
2019-05-07T01:20:53.253Z,82.77
2019-05-07T01:23:22.907Z,82.85
2019-05-07T01:25:52.610Z,82.88
2019-05-07T01:28:22.326Z,83.51
2019-05-07T01:30:52.825Z,84.00
2019-05-07T01:33:33.216Z,84.67
2019-05-07T01:36:03.434Z,84.78
2019-05-07T01:38:33.134Z,85.16
2019-05-07T01:41:02.887Z,85.72
2019-05-07T01:43:32.211Z,85.60
2019-05-07T01:46:02.991Z,85.65
2019-05-07T01:48:32.330Z,86.32
2019-05-07T01:51:03.223Z,86.20
2019-05-07T01:53:32.381Z,85.54
2019-05-07T01:56:03.169Z,85.24
2019-05-07T01:58:33.056Z,84.84
2019-05-07T02:01:02.759Z,84.55
2019-05-07T02:03:42.050Z,84.02
2019-05-07T02:06:27.322Z,83.81
2019-05-07T02:09:02.245Z,83.94
2019-05-07T02:11:32.739Z,83.65
2019-05-07T02:14:02.056Z,84.35
2019-05-07T02:16:32.520Z,84.18
2019-05-07T02:19:02.158Z,84.48
2019-05-07T02:21:32.789Z,84.89
2019-05-07T02:24:03.190Z,84.49
2019-05-07T02:26:32.153Z,84.77
2019-05-07T02:29:02.757Z,84.87
2019-05-07T02:31:33.799Z,85.38
2019-05-07T02:34:02.840Z,85.79
2019-05-07T02:36:34.066Z,86.10
2019-05-07T02:39:04.287Z,86.51
2019-05-07T02:41:34.419Z,85.84
2019-05-07T02:44:04.077Z,86.10
2019-05-07T02:46:52.722Z,87.32
2019-05-07T02:49:40.131Z,87.53
2019-05-07T02:52:13.622Z,88.16
2019-05-07T02:54:55.800Z,87.59
2019-05-07T02:57:24.411Z,87.16
2019-05-07T02:59:54.448Z,86.69
2019-05-07T03:02:24.055Z,86.56
2019-05-07T03:04:53.347Z,86.01
2019-05-07T03:07:24.107Z,85.22
2019-05-07T03:09:53.928Z,84.94
2019-05-07T03:12:23.703Z,85.36
2019-05-07T03:14:53.833Z,85.97
2019-05-07T03:17:24.615Z,86.41
2019-05-07T03:19:54.135Z,86.83
2019-05-07T03:22:23.298Z,88.09
2019-05-07T03:24:53.609Z,88.23
2019-05-07T03:27:23.453Z,88.81
2019-05-07T03:29:53.879Z,88.63
2019-05-07T03:32:38.358Z,87.88
2019-05-07T03:35:15.660Z,87.62
2019-05-07T03:37:43.433Z,87.04
2019-05-07T03:40:14.234Z,86.43
2019-05-07T03:42:43.987Z,86.01
2019-05-07T03:45:33.292Z,85.64
2019-05-07T03:48:13.591Z,85.90
2019-05-07T03:50:43.105Z,86.12
2019-05-07T03:53:14.273Z,86.54
2019-05-07T03:55:44.559Z,86.51
2019-05-07T03:58:14.569Z,86.83
2019-05-07T04:00:44.320Z,87.64
2019-05-07T04:03:13.447Z,88.04
2019-05-07T04:05:43.440Z,87.99
2019-05-07T04:08:13.228Z,88.10
2019-05-07T04:10:44.368Z,87.81
2019-05-07T04:13:13.320Z,87.56
2019-05-07T04:15:44.081Z,87.19
2019-05-07T04:18:13.286Z,87.28
2019-05-07T04:20:43.532Z,87.19
2019-05-07T04:23:13.804Z,88.22
2019-05-07T04:25:44.278Z,88.04
2019-05-07T04:28:33.517Z,88.46
2019-05-07T04:31:02.911Z,88.10
2019-05-07T04:33:33.640Z,88.20
2019-05-07T04:36:06.528Z,88.36
2019-05-07T04:38:34.974Z,89.16
2019-05-07T04:41:04.002Z,88.55
2019-05-07T04:43:33.683Z,87.48
2019-05-07T04:46:03.181Z,87.74
2019-05-07T04:48:34.128Z,86.91
2019-05-07T04:51:03.930Z,85.41
2019-05-07T04:53:32.949Z,85.34
2019-05-07T04:56:03.347Z,86.39
2019-05-07T04:58:33.839Z,86.72
2019-05-07T05:01:03.417Z,86.34
2019-05-07T05:03:34.598Z,86.22
2019-05-07T05:06:02.757Z,85.59
2019-05-07T05:08:32.532Z,85.37
2019-05-07T05:11:03.439Z,83.96
2019-05-07T05:13:32.997Z,85.05
2019-05-07T05:16:03.410Z,85.24
2019-05-07T05:18:32.930Z,83.89
2019-05-07T05:21:12.229Z,83.45
2019-05-07T05:23:48.135Z,83.47
2019-05-07T05:26:16.715Z,85.15
2019-05-07T05:28:45.138Z,83.07
2019-05-07T05:31:13.564Z,81.85
2019-05-07T05:33:42.174Z,81.91
2019-05-07T05:36:12.704Z,82.40
2019-05-07T05:38:42.388Z,80.94
2019-05-07T05:41:12.454Z,82.13
2019-05-07T05:43:54.382Z,81.56
2019-05-07T05:46:24.501Z,80.84
2019-05-07T05:48:52.926Z,79.27
2019-05-07T05:51:26.168Z,79.33
2019-05-07T05:54:02.203Z,79.36
2019-05-07T05:56:38.186Z,79.91
2019-05-07T05:59:08.378Z,79.46
2019-05-07T06:01:56.725Z,79.48
2019-05-07T06:04:29.955Z,79.42
2019-05-07T06:07:11.124Z,77.34
2019-05-07T06:09:37.812Z,79.16
2019-05-07T06:12:07.950Z,77.65
2019-05-07T06:14:38.194Z,77.96
2019-05-07T06:17:14.224Z,77.87
2019-05-07T06:19:59.423Z,76.93
2019-05-07T06:22:33.053Z,78.03
2019-05-07T06:25:03.273Z,77.59
2019-05-07T06:27:32.502Z,77.74
2019-05-07T06:30:04.813Z,78.56
2019-05-07T06:32:32.039Z,79.04
2019-05-07T06:35:02.955Z,79.17
2019-05-07T06:37:32.141Z,79.02
2019-05-07T06:40:02.697Z,78.59
2019-05-07T06:42:42.783Z,78.49
2019-05-07T06:45:19.510Z,78.56
2019-05-07T06:47:47.970Z,77.57
2019-05-07T06:50:16.469Z,77.61
2019-05-07T06:52:44.897Z,76.65
2019-05-07T06:55:13.918Z,76.55
2019-05-07T06:57:42.724Z,75.97
2019-05-07T07:00:25.341Z,74.46
2019-05-07T07:02:55.863Z,74.29
2019-05-07T07:05:35.407Z,75.15
2019-05-07T07:08:12.473Z,72.33
2019-05-07T07:10:58.650Z,73.33
2019-05-07T07:13:28.067Z,72.26
2019-05-07T07:15:56.498Z,72.83
2019-05-07T07:18:25.687Z,71.16
2019-05-07T07:20:54.209Z,68.73
2019-05-07T07:23:22.801Z,69.91
2019-05-07T07:25:52.239Z,69.72
2019-05-07T07:28:21.936Z,69.33
2019-05-07T07:30:52.694Z,69.41
2019-05-07T07:33:22.813Z,69.13
2019-05-07T07:35:52.089Z,69.33
2019-05-07T07:38:32.956Z,69.31
2019-05-07T07:41:05.474Z,69.82
2019-05-07T07:43:35.733Z,68.87
2019-05-07T07:46:04.364Z,68.37
2019-05-07T07:48:32.794Z,68.75
2019-05-07T07:51:03.223Z,68.34
2019-05-07T07:53:35.152Z,67.17
2019-05-07T07:56:19.394Z,66.22
2019-05-07T07:58:49.601Z,65.49
2019-05-07T08:01:19.738Z,65.74
2019-05-07T08:03:48.238Z,65.44
2019-05-07T08:06:16.687Z,63.33
2019-05-07T08:08:45.252Z,62.96
2019-05-07T08:11:13.816Z,62.43
2019-05-07T08:13:42.737Z,62.20
2019-05-07T08:16:12.956Z,63.34
2019-05-07T08:18:43.586Z,62.22
2019-05-07T08:21:12.070Z,61.03
2019-05-07T08:23:42.409Z,59.94
2019-05-07T08:26:12.686Z,59.29
2019-05-07T08:28:41.929Z,57.36
2019-05-07T08:31:28.262Z,58.04
2019-05-07T08:34:07.148Z,57.43
2019-05-07T08:36:35.581Z,58.36
2019-05-07T08:39:05.642Z,57.93
2019-05-07T08:41:34.466Z,57.19
2019-05-07T08:44:22.328Z,57.78
2019-05-07T08:47:08.480Z,58.59
2019-05-07T08:49:40.119Z,57.86
2019-05-07T08:52:08.909Z,58.56
2019-05-07T08:54:37.432Z,57.45
2019-05-07T08:57:06.003Z,57.71
2019-05-07T08:59:35.281Z,55.63
2019-05-07T09:02:04.184Z,56.83
2019-05-07T09:04:33.059Z,57.71
2019-05-07T09:07:02.746Z,56.37
2019-05-07T09:09:32.377Z,55.59
2019-05-07T09:12:03.025Z,55.98
2019-05-07T09:14:32.229Z,54.20
2019-05-07T09:17:02.464Z,54.40
2019-05-07T09:19:32.397Z,54.12
2019-05-07T09:22:02.170Z,54.41
2019-05-07T09:24:33.254Z,51.86
2019-05-07T09:27:08.703Z,51.19
2019-05-07T09:29:42.646Z,51.50
2019-05-07T09:32:22.752Z,51.46
2019-05-07T09:34:53.144Z,50.49
2019-05-07T09:37:29.081Z,52.06
2019-05-07T09:39:57.777Z,50.76
2019-05-07T09:42:26.278Z,50.46
2019-05-07T09:44:54.802Z,49.28
2019-05-07T09:47:23.398Z,48.27
2019-05-07T09:50:03.954Z,50.27
2019-05-07T09:52:22.811Z,48.72
2019-05-07T09:54:52.243Z,49.48
2019-05-07T09:57:30.066Z,48.85
2019-05-07T09:59:53.029Z,49.95
2019-05-07T10:02:22.714Z,49.01
2019-05-07T10:04:52.603Z,48.21
2019-05-07T10:07:22.339Z,48.46
2019-05-07T10:09:52.329Z,50.64
2019-05-07T10:12:28.889Z,48.77
2019-05-07T10:14:57.587Z,47.38
2019-05-07T10:17:45.827Z,46.67
2019-05-07T10:20:21.641Z,47.89
2019-05-07T10:22:47.215Z,47.80
2019-05-07T10:25:16.380Z,46.91
2019-05-07T10:27:45.175Z,46.91
2019-05-07T10:30:13.757Z,46.61
2019-05-07T10:32:42.461Z,47.40
2019-05-07T10:35:12.818Z,47.09
2019-05-07T10:37:42.326Z,46.39
2019-05-07T10:40:12.855Z,47.03
2019-05-07T10:42:43.062Z,48.32
2019-05-07T10:45:25.835Z,46.79
2019-05-07T10:48:11.677Z,47.46
2019-05-07T10:50:42.541Z,47.59
2019-05-07T10:53:12.551Z,48.29
2019-05-07T10:55:42.256Z,46.79
2019-05-07T10:58:11.240Z,46.87
2019-05-07T11:00:41.960Z,47.26
2019-05-07T11:03:12.481Z,47.75
2019-05-07T11:05:41.875Z,47.25
2019-05-07T11:08:10.630Z,46.17
2019-05-07T11:10:41.706Z,48.20
2019-05-07T11:13:09.742Z,46.67
2019-05-07T11:15:38.640Z,46.47
2019-05-07T11:18:12.633Z,46.72
2019-05-07T11:20:49.869Z,45.66
2019-05-07T11:23:11.722Z,44.97
2019-05-07T11:25:42.099Z,44.35
2019-05-07T11:28:12.355Z,44.88
2019-05-07T11:30:42.515Z,43.43
2019-05-07T11:33:12.738Z,43.41
2019-05-07T11:35:42.260Z,43.06
2019-05-07T11:38:18.684Z,42.46
2019-05-07T11:40:42.684Z,42.05
2019-05-07T11:43:32.643Z,42.01
2019-05-07T11:46:03.058Z,41.55
2019-05-07T11:48:35.818Z,41.03
2019-05-07T11:51:07.121Z,40.02
2019-05-07T11:53:37.279Z,39.04
2019-05-07T11:56:05.876Z,39.38
2019-05-07T11:58:34.336Z,38.62
2019-05-07T12:01:12.504Z,38.59
2019-05-07T12:03:42.750Z,39.15
2019-05-07T12:06:12.477Z,40.19
2019-05-07T12:08:45.872Z,39.48
2019-05-07T12:11:11.931Z,38.10
2019-05-07T12:13:42.572Z,37.29
2019-05-07T12:16:13.695Z,38.82
2019-05-07T12:18:42.958Z,38.38
2019-05-07T12:21:18.242Z,39.27
2019-05-07T12:23:42.211Z,38.29
2019-05-07T12:26:12.535Z,40.02
2019-05-07T12:28:41.882Z,39.44
2019-05-07T12:31:24.678Z,39.73
2019-05-07T12:34:02.556Z,39.83
2019-05-07T12:36:32.084Z,40.47
2019-05-07T12:39:02.275Z,40.63
2019-05-07T12:41:33.683Z,38.81
2019-05-07T12:44:04.334Z,40.84
2019-05-07T12:46:33.574Z,38.62
2019-05-07T12:49:03.122Z,37.79
2019-05-07T12:51:37.376Z,38.44
2019-05-07T12:54:08.673Z,38.69
2019-05-07T12:56:37.102Z,37.98
2019-05-07T12:59:05.665Z,38.95
2019-05-07T13:01:35.858Z,37.85
2019-05-07T13:04:08.435Z,37.66
2019-05-07T13:06:38.664Z,38.70
2019-05-07T13:09:07.243Z,37.19
2019-05-07T13:11:35.693Z,37.40
2019-05-07T13:14:04.478Z,37.51
2019-05-07T13:16:32.981Z,37.85
2019-05-07T13:19:01.920Z,36.84
2019-05-07T13:21:33.176Z,36.53
2019-05-07T13:24:02.596Z,36.97
2019-05-07T13:26:32.257Z,37.66
2019-05-07T13:29:02.582Z,38.09
2019-05-07T13:31:32.957Z,37.15
2019-05-07T13:34:03.058Z,36.85
2019-05-07T13:36:33.167Z,37.14
2019-05-07T13:39:06.551Z,37.85
2019-05-07T13:41:39.501Z,38.14
2019-05-07T13:44:12.479Z,37.00
2019-05-07T13:46:44.780Z,36.85
2019-05-07T13:49:12.605Z,37.00
2019-05-07T13:51:41.771Z,38.01
2019-05-07T13:54:12.690Z,36.26
2019-05-07T13:56:41.974Z,36.37
2019-05-07T13:59:13.189Z,36.46
2019-05-07T14:01:49.011Z,38.70
2019-05-07T14:04:17.433Z,37.86
2019-05-07T14:06:46.680Z,38.84
2019-05-07T14:09:17.243Z,38.08
2019-05-07T14:11:45.808Z,38.30
2019-05-07T14:14:14.336Z,38.19
2019-05-07T14:16:45.007Z,38.55
2019-05-07T14:19:13.527Z,38.99
2019-05-07T14:21:42.336Z,39.44
2019-05-07T14:24:12.455Z,39.72
2019-05-07T14:26:42.249Z,40.17
2019-05-07T14:29:11.000Z,41.62
2019-05-07T14:31:39.563Z,40.51
2019-05-07T14:34:25.115Z,41.52
2019-05-07T14:37:01.926Z,41.16
2019-05-07T14:39:33.142Z,40.78
2019-05-07T14:42:05.527Z,40.98
2019-05-07T14:44:49.927Z,40.97
2019-05-07T14:47:22.091Z,41.31
2019-05-07T14:49:52.677Z,40.89
2019-05-07T14:52:30.162Z,40.75
2019-05-07T14:54:50.993Z,40.49
2019-05-07T14:57:19.559Z,40.74
2019-05-07T14:59:49.575Z,41.33
2019-05-07T15:02:18.333Z,40.80
2019-05-07T15:04:46.896Z,41.51
2019-05-07T15:07:15.459Z,40.75
2019-05-07T15:09:44.078Z,42.20
2019-05-07T15:12:14.804Z,42.01
2019-05-07T15:14:43.455Z,41.82
2019-05-07T15:17:23.044Z,41.02
2019-05-07T15:19:52.114Z,41.93
2019-05-07T15:22:25.367Z,41.78
2019-05-07T15:24:53.895Z,41.12
2019-05-07T15:27:23.239Z,40.82
2019-05-07T15:29:52.635Z,41.41
2019-05-07T15:32:21.858Z,41.60
2019-05-07T15:34:52.507Z,40.67
2019-05-07T15:37:20.559Z,41.23
2019-05-07T15:39:49.208Z,40.97
2019-05-07T15:42:17.772Z,40.84
2019-05-07T15:44:46.273Z,41.56
2019-05-07T15:47:18.955Z,42.28
2019-05-07T15:49:47.388Z,42.07
2019-05-07T15:52:22.041Z,42.15
2019-05-07T15:54:52.096Z,41.47
2019-05-07T15:57:25.087Z,42.72
2019-05-07T15:59:55.156Z,42.47
2019-05-07T16:02:34.453Z,42.76
2019-05-07T16:05:05.038Z,42.64
2019-05-07T16:07:33.121Z,42.13
2019-05-07T16:10:02.307Z,42.02
2019-05-07T16:12:32.033Z,41.78
2019-05-07T16:15:02.989Z,42.42
2019-05-07T16:17:32.918Z,42.07
2019-05-07T16:20:03.149Z,42.23
2019-05-07T16:22:33.429Z,41.97
2019-05-07T16:25:06.848Z,41.87
2019-05-07T16:27:33.694Z,41.86
2019-05-07T16:30:02.120Z,42.15
2019-05-07T16:32:32.905Z,42.28
2019-05-07T16:35:02.661Z,42.67
2019-05-07T16:37:32.242Z,42.10
2019-05-07T16:40:01.607Z,42.62
2019-05-07T16:42:32.181Z,42.70
2019-05-07T16:45:02.754Z,42.10
2019-05-07T16:47:31.060Z,43.92
2019-05-07T16:49:59.489Z,43.05
2019-05-07T16:52:27.923Z,44.44
2019-05-07T16:54:56.444Z,44.62
2019-05-07T16:57:42.907Z,44.57
2019-05-07T17:00:16.488Z,44.14
2019-05-07T17:02:49.230Z,43.81
2019-05-07T17:05:17.856Z,43.79
2019-05-07T17:07:52.099Z,43.21
2019-05-07T17:10:22.345Z,44.14
2019-05-07T17:12:52.463Z,44.93
2019-05-07T17:15:22.773Z,45.00
2019-05-07T17:18:02.497Z,44.73
2019-05-07T17:20:32.831Z,44.69
2019-05-07T17:23:02.982Z,44.33
2019-05-07T17:25:36.997Z,45.72
2019-05-07T17:28:08.935Z,44.24
2019-05-07T17:30:38.144Z,44.53
2019-05-07T17:33:07.137Z,44.50
2019-05-07T17:35:35.635Z,43.84
2019-05-07T17:38:08.943Z,44.96
2019-05-07T17:40:34.598Z,45.90
2019-05-07T17:43:03.294Z,46.86
2019-05-07T17:45:32.826Z,46.59
2019-05-07T17:48:03.141Z,46.59
2019-05-07T17:50:49.402Z,46.67
2019-05-07T17:53:17.992Z,47.22
2019-05-07T17:55:46.416Z,46.77
2019-05-07T17:58:14.851Z,48.47
2019-05-07T18:00:46.385Z,48.98
2019-05-07T18:03:22.517Z,49.48
2019-05-07T18:05:51.939Z,49.83
2019-05-07T18:08:21.719Z,50.03
2019-05-07T18:10:50.277Z,50.86
2019-05-07T18:13:18.732Z,51.62
2019-05-07T18:15:47.164Z,52.00
2019-05-07T18:18:15.659Z,52.71
2019-05-07T18:20:44.285Z,53.35
2019-05-07T18:23:16.917Z,53.61
2019-05-07T18:25:43.034Z,54.03
2019-05-07T18:28:12.441Z,55.31
2019-05-07T18:30:41.078Z,55.95
2019-05-07T18:33:13.856Z,56.20
2019-05-07T18:35:43.624Z,57.02
2019-05-07T18:38:12.045Z,57.67
2019-05-07T18:40:42.128Z,57.80
2019-05-07T18:43:12.241Z,58.63
2019-05-07T18:45:40.868Z,58.19
2019-05-07T18:48:09.302Z,57.84
2019-05-07T18:50:37.832Z,57.81
2019-05-07T18:53:06.345Z,59.15
2019-05-07T18:55:34.842Z,58.85
2019-05-07T18:58:03.367Z,59.09
2019-05-07T19:00:36.147Z,59.70
2019-05-07T19:03:04.724Z,59.83
2019-05-07T19:05:33.355Z,59.56
2019-05-07T19:08:07.677Z,59.68
2019-05-07T19:10:32.955Z,60.50
2019-05-07T19:13:01.592Z,59.96
2019-05-07T19:15:32.724Z,59.36
2019-05-07T19:18:02.507Z,59.54
2019-05-07T19:20:32.643Z,59.86
2019-05-07T19:23:02.711Z,60.42
2019-05-07T19:25:32.642Z,60.71
2019-05-07T19:28:02.074Z,60.20
2019-05-07T19:30:32.685Z,59.80
2019-05-07T19:33:00.876Z,59.54
2019-05-07T19:35:29.410Z,59.18
2019-05-07T19:37:57.833Z,59.28
2019-05-07T19:40:26.353Z,58.32
2019-05-07T19:42:55.062Z,58.46
2019-05-07T19:45:24.508Z,58.65
2019-05-07T19:47:53.116Z,58.99
2019-05-07T19:50:23.326Z,59.16
2019-05-07T19:52:52.275Z,60.73
2019-05-07T19:55:22.015Z,60.37
2019-05-07T19:57:52.387Z,60.24
2019-05-07T20:00:22.983Z,59.17
2019-05-07T20:02:53.187Z,58.92
2019-05-07T20:05:21.872Z,59.29
2019-05-07T20:07:55.206Z,60.28
2019-05-07T20:10:28.223Z,60.21
2019-05-07T20:12:56.711Z,60.84
2019-05-07T20:15:25.206Z,61.43
2019-05-07T20:17:53.682Z,61.96
2019-05-07T20:20:22.279Z,62.47
2019-05-07T20:22:51.825Z,62.39
2019-05-07T20:25:22.503Z,62.84
2019-05-07T20:27:52.571Z,63.29
2019-05-07T20:30:22.906Z,63.64
2019-05-07T20:32:52.310Z,63.38
2019-05-07T20:35:20.832Z,61.62
2019-05-07T20:37:49.292Z,62.94
2019-05-07T20:40:17.717Z,63.06
2019-05-07T20:42:46.138Z,63.06
2019-05-07T20:45:14.765Z,63.04
2019-05-07T20:47:43.210Z,63.28
2019-05-07T20:50:12.746Z,62.34
2019-05-07T20:52:41.936Z,63.03
2019-05-07T20:55:28.223Z,63.73
2019-05-07T20:57:46.664Z,62.22
2019-05-07T21:00:18.796Z,62.22
2019-05-07T21:02:48.968Z,63.27
2019-05-07T21:05:17.453Z,64.55
2019-05-07T21:07:45.878Z,62.73
2019-05-07T21:10:14.498Z,65.18
2019-05-07T21:12:42.924Z,64.49
2019-05-07T21:15:12.362Z,64.57
2019-05-07T21:17:42.884Z,64.52
2019-05-07T21:20:12.103Z,65.05
2019-05-07T21:22:42.462Z,65.00
2019-05-07T21:25:12.028Z,64.59
2019-05-07T21:27:43.008Z,65.53
2019-05-07T21:30:12.972Z,64.69
2019-05-07T21:32:42.100Z,65.34
2019-05-07T21:35:12.147Z,64.59
2019-05-07T21:37:41.827Z,66.10
2019-05-07T21:40:13.001Z,63.39
2019-05-07T21:42:42.598Z,61.87
2019-05-07T21:45:11.443Z,62.61
2019-05-07T21:47:39.900Z,64.39
2019-05-07T21:50:08.763Z,64.01
2019-05-07T21:52:39.487Z,65.03
2019-05-07T21:55:28.075Z,66.80
2019-05-07T21:57:58.142Z,67.31
2019-05-07T22:00:34.534Z,68.94
2019-05-07T22:03:04.675Z,67.80
2019-05-07T22:05:33.099Z,69.88
2019-05-07T22:08:01.886Z,68.48
2019-05-07T22:10:30.364Z,68.71
2019-05-07T22:12:58.788Z,68.24
2019-05-07T22:15:27.248Z,68.47
2019-05-07T22:17:55.739Z,68.39
2019-05-07T22:20:24.180Z,68.24
2019-05-07T22:22:52.694Z,68.48
2019-05-07T22:25:22.229Z,68.40
2019-05-07T22:27:52.847Z,67.78
2019-05-07T22:30:23.249Z,68.98
2019-05-07T22:32:59.604Z,69.99
2019-05-07T22:35:35.621Z,69.70
2019-05-07T22:38:04.050Z,68.42
2019-05-07T22:40:32.473Z,68.81
2019-05-07T22:43:02.165Z,69.68
2019-05-07T22:45:32.219Z,69.02
2019-05-07T22:48:02.757Z,69.37
2019-05-07T22:50:33.009Z,71.01
2019-05-07T22:53:01.994Z,71.27
2019-05-07T22:55:32.539Z,72.38
2019-05-07T22:58:08.047Z,72.41
2019-05-07T23:00:38.105Z,72.55
2019-05-07T23:03:06.529Z,72.98
2019-05-07T23:05:35.098Z,72.81
2019-05-07T23:08:03.518Z,72.90
2019-05-07T23:10:33.263Z,73.46
2019-05-07T23:13:02.275Z,73.88
2019-05-07T23:15:32.178Z,73.63
2019-05-07T23:18:04.106Z,74.41
2019-05-07T23:20:32.003Z,74.04
2019-05-07T23:23:00.707Z,74.08
2019-05-07T23:25:29.144Z,74.87
2019-05-07T23:27:57.589Z,75.33
2019-05-07T23:30:26.086Z,76.21
2019-05-07T23:32:54.683Z,73.77
2019-05-07T23:35:23.117Z,73.07
2019-05-07T23:37:52.985Z,75.33
2019-05-07T23:40:25.910Z,76.64
2019-05-07T23:43:02.866Z,77.26
2019-05-07T23:45:31.486Z,77.33
2019-05-07T23:47:59.904Z,78.08
2019-05-07T23:50:28.355Z,78.15
2019-05-07T23:52:56.776Z,78.44
2019-05-07T23:55:25.195Z,78.24
2019-05-07T23:57:53.644Z,78.56
